Temperatura máxima Desde: 29-08-2016 14:00 Hasta: 19:59 Aviso por: Temperatura máxima Nivel: Amarillo info button
 

Informes METAR

 

LEZL - Sevilla, Spain
Distancia de la estación: ENE 8km
Actualización: 29/08/2016 01:30
Despejado
Despejado
 Viento de variable
Viento: variable 4 km/h
Temperatura: 24°C
Rocío: 17°C
Humedad: 65%
Barómetro: 1018 hPa
Nubes: Despejado
Visibilidad: 10 km
2016/08/28 23:30 LEZL 282330Z AUTO VRB02KT 9999 NCD 24/17 Q1018
LEMO - Morón, Spain
Distancia de la estación: SE 43km
Actualización: 29/08/2016 01:00
Despejado
Despejado
 Viento de SSO
Viento: SSO 13 km/h
Temperatura: 25°C
Rocío: 16°C
Humedad: 57%
Barómetro: 1019 hPa
Resumen: Despejado
Visibilidad: mayor de 10 km
2016/08/28 23:00 LEMO 282300Z 20007KT CAVOK 25/16 Q1019 NOSIG
LEJR - Jeréz, Spain
Distancia de la estación: S 71km
Actualización: 29/08/2016 01:30
Despejado
Despejado
 Viento de variable
Viento: variable 2 km/h
Temperatura: 21°C
Rocío: 17°C
Humedad: 78%
Barómetro: 1019 hPa
Nubes: Despejado
Visibilidad: 10 km
2016/08/28 23:30 LEJR 282330Z AUTO VRB01KT 9999 NCD 21/17 Q1019
 
LERT - Rota, Spain
Distancia de la estación: SSO 89km
Actualización: 29/08/2016 01:00
Despejado
Despejado
 Viento de calm
Viento: Calma
Temperatura: 25°C
Rocío: 19°C
Humedad: 69%
Barómetro: 1019 hPa
Resumen: Despejado
Visibilidad: mayor de 10 km
2016/08/28 23:00 LERT 282300Z 00000KT CAVOK 25/19 Q1019 NOSIG
LEMG - Málaga, Spain
Distancia de la estación: ESE 157km
Actualización: 29/08/2016 01:30
Parcialmente nuboso
Parcialmente nuboso
 Viento de ONO
Viento: ONO 7 km/h
Temperatura: 24°C
Rocío: 21°C
Humedad: 83%
Barómetro: 1018 hPa
Nubes: Parcialmente nuboso
Visibilidad: 8 km
2016/08/28 23:30 LEMG 282330Z 30004KT 8000 NSC 24/21 Q1018 NOSIG
LEBA - Córdoba, Spain
Distancia de la estación: ENE 115km
Actualización: 29/08/2016 01:30
Despejado
Despejado
 Viento de OSO
Viento: OSO 11 km/h
Temperatura: 26°C
Rocío: 16°C
Humedad: 54%
Barómetro: 1018 hPa
Nubes: Despejado
Visibilidad: 10 km
2016/08/28 23:30 LEBA 282330Z AUTO 25006KT 9999 NCD 26/16 Q1018
 
LEGR - Granada, Spain
Distancia de la estación: E 198km
Actualización: 29/08/2016 01:30
Despejado
Despejado
 Viento de variable
Viento: variable 4 km/h
Temperatura: 25°C
Rocío: 6°C
Humedad: 30%
Barómetro: 1022 hPa
Nubes: Despejado
Visibilidad: 10 km
2016/08/28 23:30 LEGR 282330Z AUTO VRB02KT 9999 NCD 25/06 Q1022
LEAM - Almería, Spain
Distancia de la estación: E 326km
Actualización: 29/08/2016 01:30
Despejado
Despejado
 Viento de SO
Viento: SO 6 km/h
Temperatura: 25°C
Rocío: 23°C
Humedad: 89%
Barómetro: 1018 hPa
Nubes: Despejado
Visibilidad: 8 km
2016/08/28 23:30 LEAM 282330Z AUTO 22003KT 190V250 8000 R07///// NCD 25/23 Q1018
LEMD - Madrid/Barajas, Spain
Distancia de la estación: NNE 402km
Actualización: 29/08/2016 01:30
Despejado
Despejado
 Viento de calm
Viento: Calma
Temperatura: 27°C
Rocío: 8°C
Humedad: 30%
Barómetro: 1020 hPa
Resumen: Despejado
Visibilidad: mayor de 10 km
2016/08/28 23:30 LEMD 282330Z 00000KT CAVOK 27/08 Q1020 NOSIG
 
LEVD - Valladolid, Spain
Distancia de la estación: N 492km
Actualización: 28/08/2016 21:30
NOT Current
Despejado
Despejado
 Viento de NO
Viento: NO 4 km/h
Temperatura: 25°C
Rocío: 8°C
Humedad: 34%
Barómetro: 1021 hPa
Resumen: Despejado
Visibilidad: mayor de 10 km
2016/08/28 19:30 LEVD 281930Z 31002KT CAVOK 25/08 Q1021
LEBL - Barcelona, Spain
Distancia de la estación: NE 816km
Actualización: 29/08/2016 01:30
Poco nuboso
Poco nuboso
 Viento de E
Viento: E 6 km/h
Temperatura: 26°C
Rocío: 23°C
Humedad: 84%
Barómetro: 1019 hPa
Nubes: Poco nuboso
Visibilidad: 10 km
Detalles de las nubes: Poco nuboso 366 m
2016/08/28 23:30 LEBL 282330Z 10003KT 9999 FEW012 26/23 Q1019 NOSIG
LEVC - Valencia, Spain
Distancia de la estación: ENE 535km
Actualización: 29/08/2016 01:30
Poco nuboso
Poco nuboso
 Viento de N
Viento: N 6 km/h
Temperatura: 26°C
Rocío: 22°C
Humedad: 79%
Barómetro: 1018 hPa
Nubes: Poco nuboso
Visibilidad: 10 km
Detalles de las nubes: Poco nuboso 610 m
2016/08/28 23:30 LEVC 282330Z 36003KT 330V040 9999 FEW020 26/22 Q1018 NOSIG